Time;durP1;ratioP1;P1;durP2;ratioP2;P2;SDS_P1;SDS_P2;PMS_P1;PMS_P2;Temp;Humidity;BMP_temperature;BMP_pressure;BME280_temperature;BME280_humidity;BME280_pressure;Samples;Min_cycle;Max_cycle;Signal;HPM_P1;HPM_P2
2022/11/29 00:01:10;;;;;;;;;;;6.10;90.30;;;;;;5037189;28;19932;-75
2022/11/29 00:03:36;;;;;;;;;;;6.10;90.30;;;;;;5038998;28;19925;-77
2022/11/29 00:06:11;;;;;;;;;;;6.10;90.30;;;;;;5036753;28;19916;-76
2022/11/29 00:08:36;;;;;;;;;;;6.10;90.30;;;;;;5037952;28;19921;-76
2022/11/29 00:11:05;;;;;;;;;;;6.10;90.30;;;;;;5023024;28;19944;-77
2022/11/29 00:13:31;;;;;;;;;;;6.10;90.60;;;;;;5054629;28;19917;-77
2022/11/29 00:16:00;;;;;;;;;;;6.10;90.30;;;;;;5055295;28;19921;-77
2022/11/29 00:18:26;;;;;;;;;;;6.10;90.30;;;;;;5036710;28;19936;-76
2022/11/29 00:20:51;;;;;;;;;;;6.10;90.30;;;;;;5035819;28;20560;-76
2022/11/29 00:23:16;;;;;;;;;;;6.10;90.30;;;;;;5036852;28;19931;-75
2022/11/29 00:25:42;;;;;;;;;;;6.10;90.30;;;;;;5037287;28;19913;-77
2022/11/29 00:28:07;;;;;;;;;;;6.10;90.30;;;;;;5038236;28;20308;-76
2022/11/29 00:30:33;;;;;;;;;;;6.10;90.30;;;;;;5018162;28;20173;-75
2022/11/29 00:32:58;;;;;;;;;;;6.10;90.30;;;;;;5034934;28;19925;-76
2022/11/29 00:35:24;;;;;;;;;;;6.10;90.30;;;;;;5055648;28;19984;-77
2022/11/29 00:37:49;;;;;;;;;;;6.10;90.30;;;;;;5038674;28;20012;-77
2022/11/29 00:40:15;;;;;;;;;;;6.10;90.30;;;;;;5015845;28;19924;-77
2022/11/29 00:42:40;;;;;;;;;;;6.20;90.30;;;;;;5038296;28;20002;-77
2022/11/29 00:45:06;;;;;;;;;;;6.10;90.30;;;;;;5037948;28;19917;-77
2022/11/29 00:47:31;;;;;;;;;;;6.20;90.30;;;;;;5036510;28;19933;-77
2022/11/29 00:49:57;;;;;;;;;;;6.20;90.30;;;;;;5054885;28;19925;-76
2022/11/29 00:52:22;;;;;;;;;;;6.20;90.30;;;;;;5053329;28;19956;-79
2022/11/29 00:54:48;;;;;;;;;;;6.20;90.30;;;;;;5008657;28;19924;-78
2022/11/29 00:57:13;;;;;;;;;;;6.20;90.30;;;;;;5033590;28;19966;-77
2022/11/29 00:59:39;;;;;;;;;;;6.10;90.30;;;;;;5016107;28;19923;-77
2022/11/29 01:02:04;;;;;;;;;;;6.20;90.30;;;;;;5033488;28;19944;-77
2022/11/29 01:04:30;;;;;;;;;;;6.20;90.30;;;;;;5048957;28;19926;-78
2022/11/29 01:06:55;;;;;;;;;;;6.20;90.30;;;;;;5015613;28;19948;-77
2022/11/29 01:09:21;;;;;;;;;;;6.20;90.30;;;;;;5050374;28;19925;-78
2022/11/29 01:11:47;;;;;;;;;;;6.20;90.30;;;;;;5035329;28;19916;-77
2022/11/29 01:14:13;;;;;;;;;;;6.20;90.30;;;;;;5015878;28;19924;-77
2022/11/29 01:16:38;;;;;;;;;;;6.20;90.30;;;;;;5034020;28;19921;-76
2022/11/29 01:19:06;;;;;;;;;;;6.20;90.30;;;;;;5034143;28;19925;-78
2022/11/29 01:21:31;;;;;;;;;;;6.20;90.30;;;;;;5031608;28;19916;-77
2022/11/29 01:23:58;;;;;;;;;;;6.20;90.30;;;;;;5035176;28;20448;-76
2022/11/29 01:26:24;;;;;;;;;;;6.20;90.30;;;;;;5033244;28;19925;-77
2022/11/29 01:28:50;;;;;;;;;;;6.20;90.30;;;;;;5052498;28;19931;-77
2022/11/29 01:31:16;;;;;;;;;;;6.20;90.30;;;;;;5038210;28;19921;-76
2022/11/29 01:33:42;;;;;;;;;;;6.20;90.30;;;;;;5023738;28;19964;-77
2022/11/29 01:36:07;;;;;;;;;;;6.20;90.30;;;;;;5038809;28;19960;-76
2022/11/29 01:38:33;;;;;;;;;;;6.20;90.30;;;;;;5035061;28;19977;-76
2022/11/29 01:41:00;;;;;;;;;;;6.20;90.30;;;;;;5038645;28;19917;-74
2022/11/29 01:43:26;;;;;;;;;;;6.20;90.30;;;;;;5036908;28;19917;-77
2022/11/29 01:45:51;;;;;;;;;;;6.20;90.30;;;;;;5039774;28;19939;-76
2022/11/29 01:48:17;;;;;;;;;;;6.20;90.30;;;;;;5054457;28;19929;-77
2022/11/29 01:50:42;;;;;;;;;;;6.20;90.30;;;;;;5022664;28;19939;-77
2022/11/29 01:53:08;;;;;;;;;;;6.20;90.30;;;;;;5027416;28;19928;-77
2022/11/29 01:55:35;;;;;;;;;;;6.20;90.30;;;;;;5037314;28;19927;-76
2022/11/29 01:58:00;;;;;;;;;;;6.20;90.30;;;;;;5057316;28;20927;-77
2022/11/29 02:00:26;;;;;;;;;;;6.20;90.30;;;;;;5037855;28;20350;-77
2022/11/29 02:02:53;;;;;;;;;;;6.20;90.30;;;;;;5042685;28;20000;-76
2022/11/29 02:05:18;;;;;;;;;;;6.20;90.30;;;;;;5040280;28;19920;-77
2022/11/29 02:07:44;;;;;;;;;;;6.30;90.30;;;;;;5037472;28;20686;-77
2022/11/29 02:10:10;;;;;;;;;;;6.20;90.30;;;;;;5039143;28;19968;-75
2022/11/29 02:12:46;;;;;;;;;;;6.30;90.30;;;;;;5040546;28;19920;-76
2022/11/29 02:15:31;;;;;;;;;;;6.20;90.30;;;;;;5027782;28;19921;-77
2022/11/29 02:17:57;;;;;;;;;;;6.20;90.30;;;;;;5043918;28;19929;-77
2022/11/29 02:20:40;;;;;;;;;;;6.30;90.30;;;;;;5041210;28;19961;-77
2022/11/29 02:23:25;;;;;;;;;;;6.30;90.30;;;;;;5055066;28;19936;-78
2022/11/29 02:25:56;;;;;;;;;;;6.30;90.30;;;;;;5055367;28;19917;-76
2022/11/29 02:28:40;;;;;;;;;;;6.30;90.30;;;;;;5039533;28;19929;-76
2022/11/29 02:31:24;;;;;;;;;;;6.30;90.30;;;;;;5054159;28;19980;-77
2022/11/29 02:33:52;;;;;;;;;;;6.30;90.30;;;;;;5057172;28;19921;-76
2022/11/29 02:36:33;;;;;;;;;;;6.30;90.30;;;;;;5035328;28;20452;-77
2022/11/29 02:39:17;;;;;;;;;;;6.30;90.30;;;;;;5036810;28;19944;-74
2022/11/29 02:41:43;;;;;;;;;;;6.30;90.30;;;;;;5055689;28;20918;-75
2022/11/29 02:44:18;;;;;;;;;;;6.30;90.30;;;;;;5042361;28;19956;-77
2022/11/29 02:47:02;;;;;;;;;;;6.30;90.30;;;;;;5023069;28;19947;-78
2022/11/29 02:49:27;;;;;;;;;;;6.30;90.30;;;;;;5055648;28;19925;-76
2022/11/29 02:52:00;;;;;;;;;;;6.30;90.30;;;;;;5028425;28;19921;-76
2022/11/29 02:54:41;;;;;;;;;;;6.30;90.30;;;;;;5038459;28;19928;-76
2022/11/29 02:57:24;;;;;;;;;;;6.30;90.30;;;;;;5040067;28;19947;-76
2022/11/29 03:00:16;;;;;;;;;;;6.30;90.30;;;;;;5023700;28;19932;-75
2022/11/29 03:03:00;;;;;;;;;;;6.30;90.30;;;;;;4935263;28;19918;-75
2022/11/29 03:05:49;;;;;;;;;;;6.30;90.30;;;;;;4952792;28;20014;-77
2022/11/29 03:08:33;;;;;;;;;;;6.30;90.30;;;;;;4924109;28;20264;-76
2022/11/29 03:11:33;;;;;;;;;;;6.30;90.30;;;;;;4921940;28;19960;-76
2022/11/29 03:14:14;;;;;;;;;;;6.30;90.30;;;;;;4896321;29;19928;-76
2022/11/29 03:16:39;;;;;;;;;;;6.30;90.30;;;;;;4899849;29;19959;-76
2022/11/29 03:19:05;;;;;;;;;;;6.30;90.30;;;;;;4901048;29;19959;-74
2022/11/29 03:21:34;;;;;;;;;;;6.30;90.30;;;;;;4897842;29;19949;-76
2022/11/29 03:24:02;;;;;;;;;;;6.30;90.30;;;;;;4882127;29;19919;-76
2022/11/29 03:26:32;;;;;;;;;;;6.30;90.30;;;;;;4884879;29;19924;-76
2022/11/29 03:29:05;;;;;;;;;;;6.30;90.30;;;;;;4899263;29;19951;-76
2022/11/29 03:31:35;;;;;;;;;;;6.30;90.30;;;;;;4886235;29;19919;-77
2022/11/29 03:34:09;;;;;;;;;;;6.30;90.30;;;;;;4884480;29;19963;-76
2022/11/29 03:36:50;;;;;;;;;;;6.30;90.30;;;;;;4898549;29;19954;-77
2022/11/29 03:39:16;;;;;;;;;;;6.40;90.30;;;;;;4913195;28;19929;-77
2022/11/29 03:41:42;;;;;;;;;;;6.30;90.30;;;;;;4959538;28;19928;-76
2022/11/29 03:44:12;;;;;;;;;;;6.40;90.30;;;;;;4979519;28;19926;-77
2022/11/29 03:46:57;;;;;;;;;;;6.30;90.30;;;;;;4959336;28;20351;-77
2022/11/29 03:49:27;;;;;;;;;;;6.30;90.70;;;;;;5023354;28;19933;-77
2022/11/29 03:51:55;;;;;;;;;;;6.30;90.30;;;;;;5023107;28;19925;-77
2022/11/29 03:54:23;;;;;;;;;;;6.30;90.30;;;;;;5034782;28;19917;-76
2022/11/29 03:56:48;;;;;;;;;;;6.40;90.30;;;;;;5017996;28;20300;-76
2022/11/29 03:59:14;;;;;;;;;;;6.30;90.30;;;;;;5039319;28;19917;-76
2022/11/29 04:01:47;;;;;;;;;;;6.30;90.30;;;;;;5055363;28;19924;-76
2022/11/29 04:04:25;;;;;;;;;;;6.30;90.30;;;;;;5056257;28;19917;-75
2022/11/29 04:06:59;;;;;;;;;;;6.40;90.30;;;;;;5039857;28;19975;-74
2022/11/29 04:09:45;;;;;;;;;;;6.30;90.30;;;;;;5039657;28;19925;-76
2022/11/29 04:12:19;;;;;;;;;;;6.40;90.30;;;;;;5038549;28;19932;-76
2022/11/29 04:15:14;;;;;;;;;;;6.30;90.30;;;;;;5039147;28;19938;-74
2022/11/29 04:17:45;;;;;;;;;;;6.40;90.30;;;;;;5030632;28;19933;-76
2022/11/29 04:20:29;;;;;;;;;;;6.40;90.30;;;;;;5032987;28;20385;-75
2022/11/29 04:23:03;;;;;;;;;;;6.30;90.30;;;;;;5054227;28;19916;-75
2022/11/29 04:25:32;;;;;;;;;;;6.30;90.30;;;;;;5033624;28;19931;-76
2022/11/29 04:28:14;;;;;;;;;;;6.30;90.30;;;;;;5033550;28;19933;-75
2022/11/29 04:30:49;;;;;;;;;;;6.40;90.30;;;;;;5032755;28;19924;-76
2022/11/29 04:33:33;;;;;;;;;;;6.40;90.30;;;;;;5032598;28;19916;-75
2022/11/29 04:36:18;;;;;;;;;;;6.40;90.30;;;;;;5052552;28;20003;-75
2022/11/29 04:39:01;;;;;;;;;;;6.40;90.40;;;;;;5033084;28;19956;-76
2022/11/29 04:41:27;;;;;;;;;;;6.40;90.40;;;;;;5052724;28;19947;-76
2022/11/29 04:44:04;;;;;;;;;;;6.40;90.40;;;;;;5034573;28;19912;-74
2022/11/29 04:46:42;;;;;;;;;;;6.40;90.30;;;;;;5038045;28;19928;-75
2022/11/29 04:49:20;;;;;;;;;;;6.40;90.40;;;;;;5048754;28;19978;-76
2022/11/29 04:51:57;;;;;;;;;;;6.30;90.30;;;;;;5036294;28;19927;-75
2022/11/29 04:54:49;;;;;;;;;;;6.30;90.30;;;;;;5044162;28;20738;-74
2022/11/29 04:57:20;;;;;;;;;;;6.40;90.30;;;;;;5020999;28;20274;-76
2022/11/29 05:00:08;;;;;;;;;;;6.30;90.30;;;;;;5028105;28;19936;-75
2022/11/29 05:02:54;;;;;;;;;;;6.30;90.30;;;;;;5044905;28;19917;-74
2022/11/29 05:05:35;;;;;;;;;;;6.30;90.30;;;;;;5028798;28;19916;-75
2022/11/29 05:08:06;;;;;;;;;;;6.30;90.30;;;;;;5045140;28;19921;-75
2022/11/29 05:10:32;;;;;;;;;;;6.30;90.30;;;;;;5057064;28;19931;-76
2022/11/29 05:13:16;;;;;;;;;;;6.30;90.30;;;;;;5059869;28;19921;-76
2022/11/29 05:15:44;;;;;;;;;;;6.30;90.30;;;;;;5042411;28;19917;-75
2022/11/29 05:18:15;;;;;;;;;;;6.30;90.30;;;;;;5058117;28;19968;-75
2022/11/29 05:20:45;;;;;;;;;;;6.30;90.30;;;;;;5032352;28;19917;-75
2022/11/29 05:23:17;;;;;;;;;;;6.40;90.30;;;;;;5029304;28;19943;-74
2022/11/29 05:25:51;;;;;;;;;;;6.30;90.30;;;;;;5019612;28;19999;-75
2022/11/29 05:28:29;;;;;;;;;;;6.40;90.40;;;;;;5051286;28;19927;-75
2022/11/29 05:31:01;;;;;;;;;;;6.30;90.30;;;;;;5059012;28;19944;-75
2022/11/29 05:33:32;;;;;;;;;;;6.40;90.40;;;;;;5055916;28;19956;-75
2022/11/29 05:35:58;;;;;;;;;;;6.40;90.40;;;;;;5019472;28;20497;-77
2022/11/29 05:38:41;;;;;;;;;;;6.30;90.30;;;;;;5027007;28;19948;-75
2022/11/29 05:41:10;;;;;;;;;;;6.40;90.40;;;;;;5049961;28;19961;-75
2022/11/29 05:43:54;;;;;;;;;;;6.30;90.40;;;;;;5056522;28;20019;-75
2022/11/29 05:46:28;;;;;;;;;;;6.40;90.40;;;;;;5054808;28;19976;-75
2022/11/29 05:48:59;;;;;;;;;;;6.30;90.30;;;;;;5054895;28;20514;-75
2022/11/29 05:51:28;;;;;;;;;;;6.30;90.30;;;;;;5035562;28;19924;-75
2022/11/29 05:53:59;;;;;;;;;;;6.40;90.40;;;;;;5056211;28;20027;-75
2022/11/29 05:56:28;;;;;;;;;;;6.40;90.40;;;;;;5038621;28;19970;-76
2022/11/29 05:59:02;;;;;;;;;;;6.40;90.40;;;;;;5032454;28;19967;-75
2022/11/29 06:01:30;;;;;;;;;;;6.30;90.30;;;;;;5057110;28;19980;-74
2022/11/29 06:04:00;;;;;;;;;;;6.40;90.40;;;;;;5042159;28;19917;-74
2022/11/29 06:06:31;;;;;;;;;;;6.40;90.40;;;;;;5040165;28;19925;-74
2022/11/29 06:09:06;;;;;;;;;;;6.30;90.30;;;;;;5026879;28;19920;-74
2022/11/29 06:11:34;;;;;;;;;;;6.40;90.40;;;;;;5033288;28;19967;-76
2022/11/29 06:14:12;;;;;;;;;;;6.30;90.40;;;;;;5057821;28;19953;-75
2022/11/29 06:16:45;;;;;;;;;;;6.30;90.40;;;;;;5042221;28;19980;-75
2022/11/29 06:19:34;;;;;;;;;;;6.30;90.30;;;;;;5021918;28;19992;-74
2022/11/29 06:22:04;;;;;;;;;;;6.40;90.40;;;;;;4984579;28;20491;-76
2022/11/29 06:24:34;;;;;;;;;;;6.40;90.40;;;;;;5031656;28;19917;-75
2022/11/29 06:27:06;;;;;;;;;;;6.40;90.40;;;;;;5032195;28;19925;-75
2022/11/29 06:29:43;;;;;;;;;;;6.30;90.40;;;;;;5027788;28;19917;-74
2022/11/29 06:32:12;;;;;;;;;;;6.30;90.40;;;;;;5026396;28;19933;-75
2022/11/29 06:34:43;;;;;;;;;;;6.30;90.40;;;;;;5025780;28;20043;-75
2022/11/29 06:37:16;;;;;;;;;;;6.30;90.40;;;;;;5042914;28;19921;-75
2022/11/29 06:39:41;;;;;;;;;;;6.40;90.40;;;;;;5051258;28;19999;-76
2022/11/29 06:42:06;;;;;;;;;;;6.40;90.40;;;;;;5032000;28;19948;-74
2022/11/29 06:44:32;;;;;;;;;;;6.40;90.40;;;;;;5012863;28;19925;-75
2022/11/29 06:47:04;;;;;;;;;;;6.30;90.70;;;;;;5033275;28;20036;-75
2022/11/29 06:49:31;;;;;;;;;;;6.30;90.40;;;;;;5049607;28;19925;-76
2022/11/29 06:52:03;;;;;;;;;;;6.30;90.40;;;;;;5031493;28;19943;-75
2022/11/29 06:54:47;;;;;;;;;;;6.30;90.40;;;;;;5035358;28;19925;-76
2022/11/29 06:57:19;;;;;;;;;;;6.30;90.40;;;;;;5036281;28;19921;-75
2022/11/29 07:00:02;;;;;;;;;;;6.30;90.40;;;;;;5038748;28;19955;-75
2022/11/29 07:02:37;;;;;;;;;;;6.30;90.40;;;;;;5035211;28;19928;-75
2022/11/29 07:05:05;;;;;;;;;;;6.30;90.40;;;;;;5036510;28;19917;-75
2022/11/29 07:07:31;;;;;;;;;;;6.30;90.40;;;;;;5035969;28;20025;-75
2022/11/29 07:09:59;;;;;;;;;;;6.30;90.40;;;;;;5022723;28;19960;-76
2022/11/29 07:12:25;;;;;;;;;;;6.30;90.40;;;;;;5037402;28;19933;-77
2022/11/29 07:14:50;;;;;;;;;;;6.30;90.40;;;;;;5045634;28;19951;-76
2022/11/29 07:17:31;;;;;;;;;;;6.30;90.40;;;;;;5037608;28;19917;-76
2022/11/29 07:19:58;;;;;;;;;;;6.30;90.40;;;;;;5052652;28;24476;-75
2022/11/29 07:22:30;;;;;;;;;;;6.30;90.40;;;;;;5056165;28;19921;-76
2022/11/29 07:25:00;;;;;;;;;;;6.30;90.40;;;;;;5034727;28;19932;-75
2022/11/29 07:27:34;;;;;;;;;;;6.30;90.40;;;;;;5037280;28;19928;-76
2022/11/29 07:30:11;;;;;;;;;;;6.40;90.40;;;;;;5035052;28;20236;-75
2022/11/29 07:32:40;;;;;;;;;;;6.30;90.40;;;;;;5031436;28;19928;-75
2022/11/29 07:35:16;;;;;;;;;;;6.30;90.40;;;;;;5016396;28;19928;-76
2022/11/29 07:37:44;;;;;;;;;;;6.40;90.40;;;;;;5034613;28;19971;-75
2022/11/29 07:40:14;;;;;;;;;;;6.30;90.70;;;;;;5034733;28;19925;-75
2022/11/29 07:42:39;;;;;;;;;;;6.40;90.50;;;;;;5037335;28;20675;-75
2022/11/29 07:45:23;;;;;;;;;;;6.40;90.40;;;;;;5035786;28;20055;-74
2022/11/29 07:47:49;;;;;;;;;;;6.40;90.40;;;;;;5035878;28;20012;-76
2022/11/29 07:50:14;;;;;;;;;;;6.30;90.40;;;;;;5031509;28;19956;-76
2022/11/29 07:52:40;;;;;;;;;;;6.40;90.40;;;;;;5036538;28;19917;-77
2022/11/29 07:55:05;;;;;;;;;;;6.40;90.40;;;;;;5032995;28;19989;-75
2022/11/29 07:57:31;;;;;;;;;;;6.40;90.40;;;;;;5037649;28;19952;-75
2022/11/29 07:59:56;;;;;;;;;;;6.40;90.40;;;;;;5035340;28;19921;-76
2022/11/29 08:02:25;;;;;;;;;;;6.40;90.40;;;;;;5035865;28;19936;-75
2022/11/29 08:04:51;;;;;;;;;;;6.40;90.40;;;;;;5025092;28;19932;-75
2022/11/29 08:07:16;;;;;;;;;;;6.40;90.40;;;;;;5034676;28;19921;-76
2022/11/29 08:09:42;;;;;;;;;;;6.40;90.40;;;;;;5033328;28;19917;-75
2022/11/29 08:12:07;;;;;;;;;;;6.40;90.40;;;;;;5030481;28;19975;-75
2022/11/29 08:14:33;;;;;;;;;;;6.50;90.40;;;;;;5017178;28;19925;-76
2022/11/29 08:16:58;;;;;;;;;;;6.50;90.40;;;;;;5030307;28;19988;-76
2022/11/29 08:19:24;;;;;;;;;;;6.50;90.40;;;;;;5052661;28;20079;-75
2022/11/29 08:21:50;;;;;;;;;;;6.50;90.40;;;;;;5039620;28;19979;-76
2022/11/29 08:24:15;;;;;;;;;;;6.50;90.40;;;;;;5020869;28;19925;-76
2022/11/29 08:26:41;;;;;;;;;;;6.50;90.40;;;;;;5040957;28;19980;-75
2022/11/29 08:29:06;;;;;;;;;;;6.60;90.40;;;;;;5014919;28;19929;-76
2022/11/29 08:31:32;;;;;;;;;;;6.60;90.40;;;;;;5018623;28;19958;-76
2022/11/29 08:33:57;;;;;;;;;;;6.60;90.40;;;;;;5037876;28;19951;-74
2022/11/29 08:36:23;;;;;;;;;;;6.60;90.40;;;;;;5004194;28;20485;-76
2022/11/29 08:38:48;;;;;;;;;;;6.60;90.40;;;;;;5041878;28;19905;-75
2022/11/29 08:41:14;;;;;;;;;;;6.60;90.40;;;;;;5058084;28;20062;-76
2022/11/29 08:43:40;;;;;;;;;;;6.60;90.40;;;;;;5042679;28;20050;-76
2022/11/29 08:46:05;;;;;;;;;;;6.70;90.40;;;;;;5028216;28;19953;-74
2022/11/29 08:48:31;;;;;;;;;;;6.70;90.40;;;;;;5039724;28;19925;-76
2022/11/29 08:50:56;;;;;;;;;;;6.70;90.40;;;;;;5038474;28;19948;-76
2022/11/29 08:53:40;;;;;;;;;;;6.70;90.30;;;;;;5042667;28;19921;-76
2022/11/29 08:56:06;;;;;;;;;;;6.70;90.30;;;;;;5042283;28;19928;-76
2022/11/29 08:58:32;;;;;;;;;;;6.70;90.30;;;;;;5039184;28;19972;-76
2022/11/29 09:00:57;;;;;;;;;;;6.70;90.30;;;;;;5043183;28;19921;-75
2022/11/29 09:06:10;;;;;;;;;;;6.70;90.30;;;;;;5062109;28;19967;-75
2022/11/29 09:08:36;;;;;;;;;;;6.80;90.40;;;;;;5039953;28;20000;-76
2022/11/29 09:11:12;;;;;;;;;;;6.80;90.30;;;;;;5056917;28;19929;-76
2022/11/29 09:13:41;;;;;;;;;;;6.80;90.30;;;;;;5040980;28;20543;-77
2022/11/29 09:16:07;;;;;;;;;;;6.80;90.30;;;;;;5058147;28;19928;-75
2022/11/29 09:18:33;;;;;;;;;;;6.80;90.30;;;;;;5036244;28;19940;-76
2022/11/29 09:20:58;;;;;;;;;;;6.90;90.30;;;;;;5039406;28;19922;-75
2022/11/29 09:23:24;;;;;;;;;;;6.80;90.30;;;;;;5037593;28;20004;-74
2022/11/29 09:25:49;;;;;;;;;;;6.90;90.50;;;;;;5030170;28;20435;-75
2022/11/29 09:28:15;;;;;;;;;;;6.90;90.30;;;;;;5043596;28;19988;-76
2022/11/29 09:30:40;;;;;;;;;;;6.90;90.30;;;;;;5033643;28;19929;-75
2022/11/29 09:33:06;;;;;;;;;;;6.90;90.70;;;;;;5038585;28;20054;-76
2022/11/29 09:35:31;;;;;;;;;;;7.00;90.30;;;;;;5019075;28;19943;-75
2022/11/29 09:37:57;;;;;;;;;;;7.00;90.30;;;;;;5036885;28;20053;-76
2022/11/29 09:40:25;;;;;;;;;;;7.00;90.30;;;;;;5038576;28;19921;-75
2022/11/29 09:42:54;;;;;;;;;;;7.10;90.30;;;;;;5040189;28;19917;-75
2022/11/29 09:45:19;;;;;;;;;;;7.00;90.30;;;;;;5021804;28;19918;-75
2022/11/29 09:47:55;;;;;;;;;;;7.10;90.30;;;;;;5037463;28;19968;-76
2022/11/29 09:50:20;;;;;;;;;;;7.10;90.70;;;;;;5036564;28;19921;-76
2022/11/29 09:52:50;;;;;;;;;;;7.10;90.30;;;;;;5039992;28;19947;-76
2022/11/29 09:55:34;;;;;;;;;;;7.20;90.30;;;;;;5036280;28;19917;-75
2022/11/29 09:58:00;;;;;;;;;;;7.20;90.30;;;;;;5037796;28;20306;-75
2022/11/29 10:00:25;;;;;;;;;;;7.20;90.30;;;;;;5011839;28;19925;-75
2022/11/29 10:02:57;;;;;;;;;;;7.20;90.30;;;;;;5022942;28;19967;-74
2022/11/29 10:05:22;;;;;;;;;;;7.20;90.30;;;;;;5037656;28;19936;-75
2022/11/29 10:07:51;;;;;;;;;;;7.20;90.30;;;;;;5053352;28;19921;-75
2022/11/29 10:10:21;;;;;;;;;;;7.30;90.30;;;;;;5035563;28;19921;-75
2022/11/29 10:12:50;;;;;;;;;;;7.30;90.30;;;;;;5035282;28;19921;-74
2022/11/29 10:15:17;;;;;;;;;;;7.30;90.20;;;;;;5039381;28;20375;-76
2022/11/29 10:17:56;;;;;;;;;;;7.30;90.20;;;;;;5036099;28;19932;-75
2022/11/29 10:20:26;;;;;;;;;;;7.30;90.20;;;;;;5054786;28;19925;-76
2022/11/29 10:22:54;;;;;;;;;;;7.30;90.20;;;;;;5039101;28;19920;-75
2022/11/29 10:25:24;;;;;;;;;;;7.30;90.20;;;;;;5048987;28;19922;-75
2022/11/29 10:27:50;;;;;;;;;;;7.30;90.20;;;;;;5057007;28;19931;-76
2022/11/29 10:30:15;;;;;;;;;;;7.40;90.20;;;;;;5035821;28;19984;-75
2022/11/29 10:32:41;;;;;;;;;;;7.40;90.20;;;;;;5021480;28;22534;-76
2022/11/29 10:35:11;;;;;;;;;;;7.40;90.20;;;;;;5023489;28;19977;-75
2022/11/29 10:37:36;;;;;;;;;;;7.40;90.20;;;;;;5015247;28;19928;-76
2022/11/29 10:40:03;;;;;;;;;;;7.40;90.20;;;;;;5023177;28;19917;-76
2022/11/29 10:42:47;;;;;;;;;;;7.40;90.20;;;;;;5021479;28;19926;-75
2022/11/29 10:45:12;;;;;;;;;;;7.40;90.20;;;;;;5030398;28;19905;-75
2022/11/29 10:47:38;;;;;;;;;;;7.40;90.20;;;;;;5043043;28;20437;-75
2022/11/29 10:50:03;;;;;;;;;;;7.40;90.20;;;;;;5035992;28;20275;-75
2022/11/29 10:52:29;;;;;;;;;;;7.40;90.20;;;;;;5057653;28;19917;-75
2022/11/29 10:54:55;;;;;;;;;;;7.40;90.20;;;;;;5040296;28;19924;-75
2022/11/29 10:57:21;;;;;;;;;;;7.40;90.20;;;;;;5036858;28;20003;-76
2022/11/29 10:59:58;;;;;;;;;;;7.40;90.20;;;;;;5034331;28;19920;-75
2022/11/29 11:02:24;;;;;;;;;;;7.40;90.20;;;;;;5053831;28;20690;-76
2022/11/29 11:04:49;;;;;;;;;;;7.50;90.20;;;;;;5037253;28;19925;-75
2022/11/29 11:07:26;;;;;;;;;;;7.40;90.20;;;;;;5054125;28;19939;-75
2022/11/29 11:09:52;;;;;;;;;;;7.50;90.20;;;;;;5036123;28;19948;-75
2022/11/29 11:12:19;;;;;;;;;;;7.50;90.20;;;;;;5000517;28;20073;-74
2022/11/29 11:14:45;;;;;;;;;;;7.50;90.10;;;;;;5037464;28;19984;-76
2022/11/29 11:17:28;;;;;;;;;;;7.50;90.20;;;;;;5012758;28;19959;-76
2022/11/29 11:19:57;;;;;;;;;;;7.60;90.20;;;;;;5032494;28;19958;-76
2022/11/29 11:22:22;;;;;;;;;;;7.60;90.20;;;;;;5032723;28;19921;-75
2022/11/29 11:24:54;;;;;;;;;;;7.60;90.10;;;;;;5017406;28;19925;-76
2022/11/29 11:27:38;;;;;;;;;;;7.60;90.10;;;;;;5032298;28;19928;-77
2022/11/29 11:30:04;;;;;;;;;;;7.60;90.10;;;;;;5028168;28;20059;-75
2022/11/29 11:32:30;;;;;;;;;;;7.60;90.10;;;;;;5034242;28;19917;-75
2022/11/29 11:34:58;;;;;;;;;;;7.60;90.10;;;;;;5021289;28;19917;-76
2022/11/29 11:37:28;;;;;;;;;;;7.70;90.10;;;;;;5032890;28;19925;-76
2022/11/29 11:39:55;;;;;;;;;;;7.70;90.10;;;;;;5049946;28;20389;-75
2022/11/29 11:42:36;;;;;;;;;;;7.70;90.10;;;;;;5014262;28;19928;-75
2022/11/29 11:45:10;;;;;;;;;;;7.70;90.10;;;;;;5036732;28;19917;-75
2022/11/29 11:47:36;;;;;;;;;;;7.70;90.10;;;;;;5035083;28;20528;-75
2022/11/29 11:50:05;;;;;;;;;;;7.70;90.10;;;;;;5034998;28;19916;-75
2022/11/29 11:52:44;;;;;;;;;;;7.70;90.10;;;;;;5033131;28;19921;-75
2022/11/29 11:55:29;;;;;;;;;;;7.70;90.10;;;;;;5030492;28;19925;-74
2022/11/29 11:58:03;;;;;;;;;;;7.80;90.10;;;;;;5030451;28;19918;-75
2022/11/29 12:00:42;;;;;;;;;;;7.70;90.10;;;;;;5031992;28;20415;-75
2022/11/29 12:03:17;;;;;;;;;;;7.80;90.10;;;;;;5036754;28;19928;-75
2022/11/29 12:05:44;;;;;;;;;;;7.80;90.10;;;;;;5036241;28;20353;-75
2022/11/29 12:08:10;;;;;;;;;;;7.80;90.10;;;;;;5032832;28;19921;-75
2022/11/29 12:10:35;;;;;;;;;;;7.80;90.50;;;;;;5032310;28;19996;-75
2022/11/29 12:13:01;;;;;;;;;;;7.80;90.10;;;;;;5031139;28;19928;-75
2022/11/29 12:15:30;;;;;;;;;;;7.80;90.10;;;;;;5026686;28;20373;-75
2022/11/29 12:18:05;;;;;;;;;;;7.80;90.00;;;;;;5012887;28;19917;-76
2022/11/29 12:20:39;;;;;;;;;;;7.80;90.00;;;;;;5052591;28;19917;-76
2022/11/29 12:23:08;;;;;;;;;;;7.80;90.00;;;;;;5054025;28;20020;-75
2022/11/29 12:25:43;;;;;;;;;;;7.90;90.00;;;;;;5046344;28;20309;-75
2022/11/29 12:28:11;;;;;;;;;;;7.90;90.00;;;;;;5034370;28;19951;-76
2022/11/29 12:30:37;;;;;;;;;;;7.90;90.00;;;;;;5021689;28;19932;-74
2022/11/29 12:33:06;;;;;;;;;;;7.90;90.00;;;;;;5032966;28;19921;-75
2022/11/29 12:35:45;;;;;;;;;;;7.90;90.00;;;;;;5018524;28;19931;-75
2022/11/29 12:38:19;;;;;;;;;;;7.90;90.00;;;;;;5019324;28;19920;-74
2022/11/29 12:41:07;;;;;;;;;;;7.90;90.00;;;;;;5054563;28;19967;-74
2022/11/29 12:43:51;;;;;;;;;;;7.90;90.00;;;;;;5052466;28;19925;-75
2022/11/29 12:46:24;;;;;;;;;;;7.90;90.00;;;;;;5036530;28;19964;-75
2022/11/29 12:49:16;;;;;;;;;;;8.00;90.00;;;;;;5034411;28;19928;-76
2022/11/29 12:51:45;;;;;;;;;;;8.00;90.10;;;;;;5010735;28;19925;-74
2022/11/29 12:54:19;;;;;;;;;;;8.00;90.00;;;;;;5035596;28;19975;-75
2022/11/29 12:56:51;;;;;;;;;;;8.00;90.00;;;;;;5037393;28;20011;-75
2022/11/29 12:59:19;;;;;;;;;;;8.00;90.00;;;;;;5037696;28;20016;-75
2022/11/29 13:01:56;;;;;;;;;;;8.00;90.00;;;;;;5053562;28;20401;-75
2022/11/29 13:04:31;;;;;;;;;;;8.00;90.00;;;;;;5046086;28;19932;-76
2022/11/29 13:06:56;;;;;;;;;;;8.00;90.00;;;;;;5053495;28;19917;-75
2022/11/29 13:09:40;;;;;;;;;;;8.00;90.00;;;;;;5055564;28;20055;-75
2022/11/29 13:12:12;;;;;;;;;;;8.00;90.00;;;;;;5055124;28;19921;-75
2022/11/29 13:14:58;;;;;;;;;;;8.00;90.00;;;;;;5036886;28;19917;-74
2022/11/29 13:17:29;;;;;;;;;;;8.00;90.00;;;;;;5055574;28;19975;-75
2022/11/29 13:19:55;;;;;;;;;;;8.00;90.00;;;;;;5030143;28;19972;-75
2022/11/29 13:22:36;;;;;;;;;;;8.00;90.00;;;;;;5035134;28;19921;-75
2022/11/29 13:25:02;;;;;;;;;;;8.00;90.00;;;;;;5033920;28;20228;-75
2022/11/29 13:27:29;;;;;;;;;;;8.00;90.00;;;;;;5032916;28;19936;-75
2022/11/29 13:29:55;;;;;;;;;;;8.00;90.00;;;;;;5032823;28;19917;-74
2022/11/29 13:32:33;;;;;;;;;;;8.00;90.00;;;;;;5036140;28;20064;-75
2022/11/29 13:35:00;;;;;;;;;;;8.00;90.00;;;;;;5013766;28;19921;-76
2022/11/29 13:37:29;;;;;;;;;;;8.00;90.00;;;;;;5036484;28;22182;-76
2022/11/29 13:39:57;;;;;;;;;;;8.00;90.00;;;;;;5021154;28;19921;-75
2022/11/29 13:42:41;;;;;;;;;;;8.00;90.00;;;;;;5036580;28;19960;-74
2022/11/29 13:45:09;;;;;;;;;;;8.00;90.00;;;;;;5032519;28;19921;-75
2022/11/29 13:47:46;;;;;;;;;;;8.00;90.10;;;;;;5036345;28;19921;-75
2022/11/29 13:50:32;;;;;;;;;;;8.00;90.00;;;;;;5034865;28;19925;-76
2022/11/29 13:53:04;;;;;;;;;;;8.00;90.00;;;;;;5018879;28;20389;-76
2022/11/29 13:55:30;;;;;;;;;;;8.00;90.00;;;;;;5023523;28;19917;-76
2022/11/29 13:57:58;;;;;;;;;;;8.00;90.00;;;;;;5030265;28;19925;-75
2022/11/29 14:00:28;;;;;;;;;;;8.00;90.00;;;;;;5017310;28;19932;-75
2022/11/29 14:02:54;;;;;;;;;;;8.00;90.00;;;;;;5031303;28;19999;-75
2022/11/29 14:05:23;;;;;;;;;;;8.00;90.00;;;;;;5035427;28;19923;-75
2022/11/29 14:08:27;;;;;;;;;;;8.00;90.00;;;;;;5034942;28;19952;-74
2022/11/29 14:10:53;;;;;;;;;;;8.00;90.00;;;;;;4971321;28;19920;-72
2022/11/29 14:13:19;;;;;;;;;;;8.00;90.00;;;;;;4959671;28;20382;-72
2022/11/29 14:15:50;;;;;;;;;;;7.90;90.00;;;;;;4972998;28;19951;-71
2022/11/29 14:18:34;;;;;;;;;;;7.90;90.00;;;;;;5016475;28;19936;-75
2022/11/29 14:20:59;;;;;;;;;;;7.90;90.00;;;;;;5001921;28;19921;-75
2022/11/29 14:23:31;;;;;;;;;;;7.90;90.00;;;;;;5004644;28;19918;-75
2022/11/29 14:25:56;;;;;;;;;;;7.90;90.00;;;;;;5024246;28;20405;-75
2022/11/29 14:28:22;;;;;;;;;;;7.90;90.00;;;;;;5010087;28;19925;-75
2022/11/29 14:30:51;;;;;;;;;;;7.90;90.00;;;;;;5007776;28;20040;-76
2022/11/29 14:33:16;;;;;;;;;;;7.90;90.00;;;;;;5006835;28;19941;-75
2022/11/29 14:35:43;;;;;;;;;;;7.90;90.00;;;;;;5005349;28;20579;-76
2022/11/29 14:38:08;;;;;;;;;;;7.90;90.00;;;;;;5004917;28;19920;-74
2022/11/29 14:40:40;;;;;;;;;;;7.80;90.00;;;;;;5010577;28;19992;-76
2022/11/29 14:43:14;;;;;;;;;;;7.80;90.00;;;;;;5004489;28;19925;-74
2022/11/29 14:45:40;;;;;;;;;;;7.80;90.00;;;;;;5013723;28;19918;-75
2022/11/29 14:48:08;;;;;;;;;;;7.90;90.00;;;;;;5009200;28;20377;-74
2022/11/29 14:50:34;;;;;;;;;;;7.80;90.00;;;;;;5004591;28;19937;-75
2022/11/29 14:53:00;;;;;;;;;;;7.80;90.40;;;;;;5010121;28;19926;-72
2022/11/29 14:55:25;;;;;;;;;;;7.80;90.10;;;;;;4997296;28;19980;-71